createdAt,value
2018-05-29T00:01:09.259Z,12.70
2018-05-29T00:03:37.463Z,12.30
2018-05-29T00:06:06.051Z,12.73
2018-05-29T00:08:35.137Z,12.47
2018-05-29T00:11:03.342Z,12.33
2018-05-29T00:13:36.967Z,12.40
2018-05-29T00:16:10.740Z,11.63
2018-05-29T00:18:44.566Z,12.70
2018-05-29T00:21:18.207Z,13.43
2018-05-29T00:23:52.066Z,13.97
2018-05-29T00:26:25.818Z,12.77
2018-05-29T00:28:59.690Z,11.37
2018-05-29T00:31:33.493Z,10.87
2018-05-29T00:34:07.214Z,11.47
2018-05-29T00:36:41.818Z,10.97
2018-05-29T00:39:15.761Z,10.70
2018-05-29T00:41:49.626Z,11.23
2018-05-29T00:44:23.387Z,10.90
2018-05-29T00:46:57.150Z,12.33
2018-05-29T00:49:30.969Z,11.37
2018-05-29T00:52:04.823Z,11.87
2018-05-29T00:54:38.597Z,12.03
2018-05-29T00:57:07.654Z,10.10
2018-05-29T00:59:36.635Z,9.33
2018-05-29T01:02:10.363Z,10.17
2018-05-29T01:04:43.974Z,11.03
2018-05-29T01:07:18.677Z,10.77
2018-05-29T01:09:52.520Z,12.33
2018-05-29T01:12:26.401Z,11.57
2018-05-29T01:15:01.028Z,11.80
2018-05-29T01:17:34.824Z,10.50
2018-05-29T01:20:08.580Z,11.20
2018-05-29T01:22:42.633Z,11.50
2018-05-29T01:25:16.540Z,11.83
2018-05-29T01:27:50.361Z,10.53
2018-05-29T01:30:24.193Z,12.97
2018-05-29T01:32:57.898Z,13.03
2018-05-29T01:35:32.318Z,12.53
2018-05-29T01:38:06.236Z,12.83
2018-05-29T01:40:40.157Z,13.10
2018-05-29T01:43:14.038Z,11.03
2018-05-29T01:45:47.762Z,9.27
2018-05-29T01:48:21.574Z,8.83
2018-05-29T01:50:55.419Z,8.50
2018-05-29T01:53:29.164Z,8.27
2018-05-29T01:56:02.957Z,7.80
2018-05-29T01:58:36.814Z,7.40
2018-05-29T02:01:10.607Z,8.27
2018-05-29T02:03:44.391Z,7.23
2018-05-29T02:06:18.245Z,7.07
2018-05-29T02:08:52.781Z,6.77
2018-05-29T02:11:27.363Z,6.40
2018-05-29T02:14:01.916Z,7.07
2018-05-29T02:16:35.616Z,7.63
2018-05-29T02:19:10.209Z,7.00
2018-05-29T02:21:43.940Z,6.87
2018-05-29T02:24:17.788Z,7.10
2018-05-29T02:26:52.256Z,6.60
2018-05-29T02:29:26.060Z,6.63
2018-05-29T02:31:59.854Z,6.83
2018-05-29T02:34:34.359Z,7.17
2018-05-29T02:37:08.141Z,6.80
2018-05-29T02:39:41.895Z,7.20
2018-05-29T02:42:15.752Z,6.93
2018-05-29T02:44:49.813Z,6.90
2018-05-29T02:47:24.431Z,7.10
2018-05-29T02:49:58.168Z,6.77
2018-05-29T02:52:32.829Z,6.63
2018-05-29T02:55:06.614Z,7.40
2018-05-29T02:57:40.480Z,6.63
2018-05-29T03:00:15.005Z,6.63
2018-05-29T03:02:49.451Z,7.07
2018-05-29T03:05:23.218Z,7.20
2018-05-29T03:07:56.990Z,6.83
2018-05-29T03:10:30.655Z,6.80
2018-05-29T03:13:04.654Z,6.57
2018-05-29T03:15:38.411Z,6.70
2018-05-29T03:18:12.145Z,6.70
2018-05-29T03:20:46.093Z,7.07
2018-05-29T03:23:20.056Z,6.50
2018-05-29T03:25:54.724Z,6.40
2018-05-29T03:28:28.380Z,6.67
2018-05-29T03:31:02.224Z,6.27
2018-05-29T03:33:36.041Z,7.20
2018-05-29T03:36:09.934Z,6.70
2018-05-29T03:38:43.725Z,6.97
2018-05-29T03:41:17.429Z,6.13
2018-05-29T03:43:51.147Z,6.60
2018-05-29T03:46:24.961Z,7.00
2018-05-29T03:48:59.412Z,6.70
2018-05-29T03:51:33.190Z,6.93
2018-05-29T03:54:07.124Z,7.20
2018-05-29T03:56:40.960Z,7.27
2018-05-29T03:59:15.605Z,6.87
2018-05-29T04:01:50.138Z,6.63
2018-05-29T04:04:23.782Z,7.10
2018-05-29T04:06:57.607Z,6.67
2018-05-29T04:09:31.343Z,7.27
2018-05-29T04:12:05.192Z,6.93
2018-05-29T04:14:38.977Z,6.80
2018-05-29T04:17:12.802Z,7.33
2018-05-29T04:19:46.606Z,6.87
2018-05-29T04:22:21.252Z,7.57
2018-05-29T04:24:54.999Z,8.13
2018-05-29T04:27:28.768Z,7.70
2018-05-29T04:30:02.615Z,7.33
2018-05-29T04:32:37.124Z,7.60
2018-05-29T04:35:10.995Z,7.33
2018-05-29T04:37:45.484Z,7.10
2018-05-29T04:40:19.169Z,6.50
2018-05-29T04:42:52.819Z,7.13
2018-05-29T04:45:26.606Z,7.30
2018-05-29T04:48:00.437Z,7.73
2018-05-29T04:50:34.238Z,7.60
2018-05-29T04:53:07.901Z,7.33
2018-05-29T04:55:41.699Z,7.03
2018-05-29T04:58:15.398Z,7.30
2018-05-29T05:00:49.227Z,7.20
2018-05-29T05:03:23.036Z,7.70
2018-05-29T05:05:56.843Z,7.10
2018-05-29T05:08:30.522Z,7.17
2018-05-29T05:11:04.429Z,6.73
2018-05-29T05:13:38.180Z,7.13
2018-05-29T05:16:12.718Z,7.37
2018-05-29T05:18:46.410Z,7.43
2018-05-29T05:21:20.024Z,8.13
2018-05-29T05:23:53.831Z,7.90
2018-05-29T05:26:27.706Z,7.47
2018-05-29T05:29:01.509Z,7.67
2018-05-29T05:31:35.293Z,8.47
2018-05-29T05:34:09.960Z,7.70
2018-05-29T05:36:43.575Z,8.40
2018-05-29T05:39:17.450Z,7.97
2018-05-29T05:41:51.086Z,8.27
2018-05-29T05:44:25.664Z,8.03
2018-05-29T05:46:59.346Z,8.83
2018-05-29T05:49:33.190Z,8.97
2018-05-29T05:52:08.225Z,7.57
2018-05-29T05:54:42.062Z,8.73
2018-05-29T05:57:15.832Z,9.53
2018-05-29T05:59:49.654Z,8.40
2018-05-29T06:02:24.105Z,8.60
2018-05-29T06:04:57.806Z,7.63
2018-05-29T06:07:31.634Z,8.77
2018-05-29T06:10:05.481Z,8.67
2018-05-29T06:12:39.186Z,8.50
2018-05-29T06:15:13.566Z,8.13
2018-05-29T06:17:48.164Z,7.57
2018-05-29T06:20:22.112Z,8.67
2018-05-29T06:22:55.836Z,8.27
2018-05-29T06:25:30.348Z,7.90
2018-05-29T06:28:04.021Z,8.90
2018-05-29T06:30:37.754Z,8.17
2018-05-29T06:33:11.623Z,7.73
2018-05-29T06:35:45.439Z,8.27
2018-05-29T06:38:20.014Z,8.70
2018-05-29T06:40:53.959Z,9.10
2018-05-29T06:43:27.663Z,8.47
2018-05-29T06:46:01.462Z,8.67
2018-05-29T06:48:35.282Z,8.30
2018-05-29T06:51:10.663Z,7.60
2018-05-29T06:53:44.360Z,8.30
2018-05-29T06:56:18.991Z,7.57
2018-05-29T06:58:52.767Z,7.80
2018-05-29T07:01:27.201Z,7.83
2018-05-29T07:04:00.950Z,8.20
2018-05-29T07:06:34.781Z,8.47
2018-05-29T07:09:08.630Z,7.90
2018-05-29T07:11:42.346Z,7.87
2018-05-29T07:14:16.037Z,7.07
2018-05-29T07:16:49.973Z,7.90
2018-05-29T07:19:23.809Z,17.20
2018-05-29T07:21:57.562Z,25.63
2018-05-29T07:24:31.270Z,22.93
2018-05-29T07:27:05.071Z,26.53
2018-05-29T07:29:38.917Z,27.97
2018-05-29T07:32:12.773Z,32.27
2018-05-29T07:34:46.645Z,32.33
2018-05-29T07:37:20.466Z,30.10
2018-05-29T07:39:48.683Z,34.10
2018-05-29T07:42:16.834Z,27.13
2018-05-29T07:44:45.009Z,26.67
2018-05-29T07:47:13.224Z,32.30
2018-05-29T07:49:42.173Z,31.53
2018-05-29T07:52:10.456Z,26.70
2018-05-29T07:54:38.732Z,19.90
2018-05-29T07:57:06.943Z,18.30
2018-05-29T07:59:35.145Z,15.40
2018-05-29T08:02:03.365Z,14.73
2018-05-29T08:04:31.591Z,13.63
2018-05-29T08:07:00.538Z,12.93
2018-05-29T08:09:28.731Z,11.83
2018-05-29T08:11:57.730Z,11.37
2018-05-29T08:14:25.962Z,11.33
2018-05-29T08:16:54.182Z,16.77
2018-05-29T08:19:23.218Z,13.47
2018-05-29T08:21:51.479Z,12.20
2018-05-29T08:24:19.754Z,11.27
2018-05-29T08:26:48.032Z,11.07
2018-05-29T08:29:16.224Z,11.47
2018-05-29T08:31:44.402Z,10.13
2018-05-29T08:34:12.652Z,9.63
2018-05-29T08:36:40.852Z,9.27
2018-05-29T08:39:09.152Z,9.40
2018-05-29T08:41:37.413Z,9.57
2018-05-29T08:44:05.662Z,9.20
2018-05-29T08:46:33.873Z,9.27
2018-05-29T08:49:02.895Z,9.93
2018-05-29T08:51:31.198Z,9.00
2018-05-29T08:53:59.422Z,8.60
2018-05-29T08:56:28.374Z,8.43
2018-05-29T08:58:57.130Z,8.77
2018-05-29T09:01:25.338Z,9.20
2018-05-29T09:03:53.595Z,8.47
2018-05-29T09:06:22.548Z,9.03
2018-05-29T09:08:51.486Z,13.17
2018-05-29T09:11:19.738Z,20.07
2018-05-29T09:13:47.976Z,22.60
2018-05-29T09:16:16.841Z,22.43
2018-05-29T09:18:45.071Z,22.80
2018-05-29T09:21:13.266Z,23.67
2018-05-29T09:23:41.495Z,23.47
2018-05-29T09:26:10.640Z,23.27
2018-05-29T09:28:38.888Z,24.23
2018-05-29T09:31:07.155Z,23.10
2018-05-29T09:33:35.400Z,24.27
2018-05-29T09:36:04.375Z,22.50
2018-05-29T09:38:32.605Z,21.07
2018-05-29T09:41:00.801Z,24.43
2018-05-29T09:43:29.012Z,23.27
2018-05-29T09:45:58.028Z,21.73
2018-05-29T09:48:26.167Z,19.67
2018-05-29T09:50:54.348Z,21.83
2018-05-29T09:53:23.377Z,17.97
2018-05-29T09:55:51.575Z,15.47
2018-05-29T09:58:19.827Z,13.30
2018-05-29T10:00:48.916Z,13.27
2018-05-29T10:03:17.191Z,12.83
2018-05-29T10:05:46.094Z,12.30
2018-05-29T10:08:14.284Z,12.83
2018-05-29T10:10:42.532Z,11.80
2018-05-29T10:13:11.481Z,12.37
2018-05-29T10:15:39.638Z,11.73
2018-05-29T10:18:07.839Z,11.00
2018-05-29T10:20:36.027Z,11.53
2018-05-29T10:23:04.289Z,11.73
2018-05-29T10:25:33.359Z,11.97
2018-05-29T10:28:01.552Z,11.20
2018-05-29T10:30:30.533Z,15.50
2018-05-29T10:32:59.558Z,11.53
2018-05-29T10:35:27.770Z,10.83
2018-05-29T10:37:57.081Z,12.07
2018-05-29T10:40:25.283Z,11.37
2018-05-29T10:42:54.696Z,11.30
2018-05-29T10:45:22.881Z,10.23
2018-05-29T10:47:51.285Z,23.73
2018-05-29T10:50:23.505Z,23.97
2018-05-29T10:52:51.748Z,16.33
2018-05-29T10:55:19.960Z,18.87
2018-05-29T10:57:48.198Z,15.70
2018-05-29T11:00:17.175Z,18.23
2018-05-29T11:02:45.401Z,17.37
2018-05-29T11:05:13.650Z,16.63
2018-05-29T11:07:42.638Z,13.20
2018-05-29T11:10:10.867Z,10.67
2018-05-29T11:12:39.136Z,12.63
2018-05-29T11:15:07.936Z,11.60
2018-05-29T11:17:36.181Z,16.20
2018-05-29T11:20:04.622Z,16.10
2018-05-29T11:22:32.856Z,16.13
2018-05-29T11:25:01.051Z,15.53
2018-05-29T11:27:29.350Z,14.30
2018-05-29T11:29:57.551Z,13.77
2018-05-29T11:32:26.406Z,14.37
2018-05-29T11:34:55.398Z,15.83
2018-05-29T11:37:24.403Z,11.23
2018-05-29T11:39:53.447Z,14.03
2018-05-29T11:42:21.640Z,16.10
2018-05-29T11:44:49.969Z,12.10
2018-05-29T11:47:19.001Z,13.97
2018-05-29T11:49:47.210Z,13.83
2018-05-29T11:52:16.761Z,15.03
2018-05-29T11:54:45.012Z,13.67
2018-05-29T11:57:13.266Z,11.13
2018-05-29T11:59:41.513Z,20.07
2018-05-29T12:02:09.728Z,15.73
2018-05-29T12:04:37.956Z,11.27
2018-05-29T12:07:06.180Z,18.40
2018-05-29T12:09:34.457Z,17.33
2018-05-29T12:12:14.615Z,15.90
2018-05-29T12:14:42.798Z,17.50
2018-05-29T12:17:11.080Z,16.30
2018-05-29T12:19:40.193Z,13.53
2018-05-29T12:22:08.545Z,17.00
2018-05-29T12:24:36.906Z,18.67
2018-05-29T12:27:05.198Z,17.00
2018-05-29T12:29:33.458Z,14.47
2018-05-29T12:32:02.569Z,18.43
2018-05-29T12:34:32.402Z,13.00
2018-05-29T12:37:00.710Z,16.57
2018-05-29T12:39:28.918Z,15.60
2018-05-29T12:41:57.169Z,15.50
2018-05-29T12:44:26.179Z,15.47
2018-05-29T12:46:54.479Z,12.60
2018-05-29T12:49:22.802Z,12.27
2018-05-29T12:51:51.009Z,11.47
2018-05-29T12:54:19.253Z,18.83
2018-05-29T12:56:47.676Z,16.57
2018-05-29T12:59:20.060Z,16.50
2018-05-29T13:01:48.276Z,11.13
2018-05-29T13:04:18.111Z,16.77
2018-05-29T13:06:46.464Z,12.93
2018-05-29T13:09:15.464Z,14.30
2018-05-29T13:11:44.485Z,15.47
2018-05-29T13:14:12.729Z,17.67
2018-05-29T13:16:41.732Z,16.90
2018-05-29T13:19:10.740Z,14.77
2018-05-29T13:21:38.994Z,11.53
2018-05-29T13:24:07.215Z,16.43
2018-05-29T13:26:35.484Z,12.40
2018-05-29T13:29:03.770Z,14.23
2018-05-29T13:31:31.972Z,11.37
2018-05-29T13:34:00.967Z,11.27
2018-05-29T13:36:29.986Z,16.30
2018-05-29T13:38:58.315Z,14.43
2018-05-29T13:41:26.777Z,16.27
2018-05-29T13:43:55.037Z,20.37
2018-05-29T13:46:23.281Z,16.20
2018-05-29T13:48:52.253Z,18.23
2018-05-29T13:51:21.238Z,13.13
2018-05-29T13:53:49.456Z,16.40
2018-05-29T13:56:17.702Z,20.20
2018-05-29T13:58:46.835Z,20.90
2018-05-29T14:01:15.039Z,13.17
2018-05-29T14:03:43.624Z,21.43
2018-05-29T14:06:11.921Z,19.40
2018-05-29T14:08:40.934Z,19.17
2018-05-29T14:11:09.878Z,20.13
2018-05-29T14:13:38.113Z,17.77
2018-05-29T14:16:06.344Z,15.27
2018-05-29T14:18:34.558Z,17.77
2018-05-29T14:21:02.762Z,18.67
2018-05-29T14:23:30.964Z,15.67
2018-05-29T14:25:59.182Z,17.43
2018-05-29T14:28:27.507Z,15.43
2018-05-29T14:30:55.842Z,17.07
2018-05-29T14:33:24.064Z,15.70
2018-05-29T14:35:53.052Z,16.03
2018-05-29T14:38:21.345Z,15.03
2018-05-29T14:40:50.353Z,16.33
2018-05-29T14:43:19.319Z,16.53
2018-05-29T14:45:48.300Z,13.93
2018-05-29T14:48:17.282Z,14.83
2018-05-29T14:50:45.529Z,15.10
2018-05-29T14:53:13.733Z,14.43
2018-05-29T14:55:42.035Z,16.40
2018-05-29T14:58:11.062Z,14.50
2018-05-29T15:00:39.297Z,15.13
2018-05-29T15:03:08.305Z,15.37
2018-05-29T15:05:37.300Z,17.13
2018-05-29T15:08:05.501Z,15.13
2018-05-29T15:10:33.777Z,15.90
2018-05-29T15:13:02.069Z,16.13
2018-05-29T15:15:30.365Z,15.97
2018-05-29T15:17:59.278Z,17.23
2018-05-29T15:20:27.522Z,16.07
2018-05-29T15:22:56.611Z,15.87
2018-05-29T15:25:24.863Z,18.53
2018-05-29T15:27:53.185Z,18.97
2018-05-29T15:30:22.188Z,20.87
2018-05-29T15:32:50.513Z,23.00
2018-05-29T15:35:18.745Z,22.30
2018-05-29T15:37:46.947Z,24.07
2018-05-29T15:40:15.133Z,25.00
2018-05-29T15:42:43.409Z,28.43
2018-05-29T17:31:19.511Z,7.83
2018-05-29T17:33:47.810Z,8.17
2018-05-29T17:36:16.051Z,9.57
2018-05-29T17:38:44.304Z,9.00
2018-05-29T17:41:12.557Z,9.27
2018-05-29T17:43:41.571Z,9.70
2018-05-29T17:46:09.861Z,10.30
2018-05-29T17:48:38.150Z,9.57
2018-05-29T17:51:07.343Z,11.20
2018-05-29T17:53:35.768Z,13.73
2018-05-29T17:56:04.009Z,14.47
2018-05-29T17:58:32.287Z,19.20
2018-05-29T18:01:00.765Z,21.50
2018-05-29T18:03:29.295Z,23.37
2018-05-29T18:05:57.810Z,27.07
2018-05-29T18:08:26.094Z,26.83
2018-05-29T18:10:54.532Z,27.47
2018-05-29T18:13:23.024Z,31.93
2018-05-29T18:15:51.291Z,29.40
2018-05-29T18:18:19.536Z,26.87
2018-05-29T18:20:47.812Z,24.77
2018-05-29T18:23:16.094Z,26.23
2018-05-29T18:25:45.389Z,25.40
2018-05-29T18:28:14.433Z,26.07
2018-05-29T18:30:42.788Z,17.47
2018-05-29T18:33:11.045Z,16.63
2018-05-29T18:35:40.055Z,15.53
2018-05-29T18:38:08.283Z,14.07
2018-05-29T18:40:36.485Z,14.87
2018-05-29T18:43:05.468Z,15.10
2018-05-29T18:45:34.475Z,13.60
2018-05-29T18:48:03.513Z,14.53
2018-05-29T18:50:32.626Z,13.00
2018-05-29T18:53:00.847Z,14.07
2018-05-29T18:55:29.082Z,12.43
2018-05-29T18:57:57.318Z,13.47
2018-05-29T19:00:25.598Z,13.87
2018-05-29T19:02:53.795Z,13.43
2018-05-29T19:05:21.989Z,13.20
2018-05-29T19:07:50.971Z,12.90
2018-05-29T19:10:19.201Z,13.33
2018-05-29T19:12:47.393Z,13.57
2018-05-29T19:15:15.635Z,13.30
2018-05-29T19:17:43.828Z,13.60
2018-05-29T19:20:12.070Z,14.53
2018-05-29T19:22:40.292Z,14.20
2018-05-29T19:25:08.547Z,13.70
2018-05-29T19:27:36.795Z,13.13
2018-05-29T19:30:05.793Z,11.93
2018-05-29T19:32:34.004Z,11.23
2018-05-29T19:35:02.179Z,11.80
2018-05-29T19:37:30.370Z,11.73
2018-05-29T19:39:58.564Z,11.80
2018-05-29T19:42:26.869Z,12.27
2018-05-29T19:44:55.090Z,11.77
2018-05-29T19:47:23.330Z,13.03
2018-05-29T19:49:51.611Z,12.87
2018-05-29T19:52:19.865Z,12.97
2018-05-29T19:54:48.025Z,12.70
2018-05-29T19:57:16.231Z,12.80
2018-05-29T19:59:44.460Z,12.87
2018-05-29T20:02:13.488Z,12.70
2018-05-29T20:04:41.740Z,12.70
2018-05-29T20:07:09.957Z,12.83
2018-05-29T20:09:38.160Z,12.97
2018-05-29T20:12:07.172Z,13.43
2018-05-29T20:14:35.318Z,12.93
2018-05-29T20:17:03.520Z,12.40
2018-05-29T20:19:31.750Z,13.43
2018-05-29T20:22:00.763Z,14.93
2018-05-29T20:24:29.712Z,15.83
2018-05-29T20:26:57.929Z,14.53
2018-05-29T20:29:26.923Z,14.60
2018-05-29T20:31:55.149Z,14.10
2018-05-29T20:34:23.623Z,14.90
2018-05-29T20:36:51.944Z,17.77
2018-05-29T20:39:20.086Z,18.97
2018-05-29T20:41:48.314Z,15.90
2018-05-29T20:44:16.546Z,15.27
2018-05-29T20:46:44.801Z,17.00
2018-05-29T20:49:12.997Z,14.63
2018-05-29T20:51:41.222Z,16.27
2018-05-29T20:54:09.468Z,16.00
2018-05-29T20:56:37.672Z,16.67
2018-05-29T20:59:05.932Z,15.77
2018-05-29T21:01:34.910Z,15.67
2018-05-29T21:04:03.889Z,18.00
2018-05-29T21:06:32.159Z,17.13
2018-05-29T21:09:00.430Z,15.27
2018-05-29T21:11:28.755Z,17.03
2018-05-29T21:13:57.084Z,16.20
2018-05-29T21:16:25.936Z,18.47
2018-05-29T21:18:54.150Z,14.87
2018-05-29T21:21:22.341Z,13.70
2018-05-29T21:23:51.731Z,12.30
2018-05-29T21:26:20.706Z,12.43
2018-05-29T21:28:48.888Z,12.40
2018-05-29T21:31:17.158Z,11.03
2018-05-29T21:33:45.414Z,10.47
2018-05-29T21:36:13.642Z,10.23
2018-05-29T21:38:42.589Z,10.43
2018-05-29T21:41:10.853Z,10.43
2018-05-29T21:43:39.048Z,9.67
2018-05-29T21:46:07.346Z,10.53
2018-05-29T21:48:36.389Z,9.87
2018-05-29T21:51:05.383Z,12.13
2018-05-29T21:53:33.617Z,10.50
2018-05-29T21:56:02.644Z,9.90
2018-05-29T21:58:30.898Z,10.57
2018-05-29T22:00:59.096Z,9.57
2018-05-29T22:03:27.296Z,10.20
2018-05-29T22:05:55.545Z,10.73
2018-05-29T22:08:23.824Z,30.03
2018-05-29T22:10:52.302Z,45.50
2018-05-29T22:13:20.785Z,44.70
2018-05-29T22:15:49.216Z,46.20
2018-05-29T22:18:19.000Z,87.10
2018-05-29T22:20:48.487Z,127.95
2018-05-29T22:23:18.728Z,136.33
2018-05-29T22:25:56.685Z,143.23
2018-05-29T22:28:27.464Z,149.25
2018-05-29T22:30:56.628Z,166.97
2018-05-29T22:33:25.385Z,169.20
2018-05-29T22:46:37.214Z,191.17
2018-05-29T22:49:05.958Z,185.13
2018-05-29T22:57:41.082Z,209.30
2018-05-29T23:00:09.925Z,212.03
2018-05-29T23:02:39.370Z,202.23
2018-05-29T23:05:13.074Z,196.60
2018-05-29T23:07:46.673Z,192.57
2018-05-29T23:16:22.972Z,203.97
2018-05-29T23:18:53.397Z,214.50
2018-05-29T23:21:29.776Z,211.27
2018-05-29T23:24:13.111Z,210.60
2018-05-29T23:26:45.095Z,211.47
2018-05-29T23:29:13.941Z,207.43
2018-05-29T23:31:43.721Z,196.70
2018-05-29T23:34:13.049Z,188.40
2018-05-29T23:36:43.399Z,181.17
2018-05-29T23:39:11.941Z,184.33
2018-05-29T23:41:40.951Z,189.93
2018-05-29T23:44:09.249Z,203.37
2018-05-29T23:46:37.513Z,200.07
2018-05-29T23:49:11.342Z,206.77
2018-05-29T23:51:45.893Z,205.33
2018-05-29T23:54:20.626Z,211.30
2018-05-29T23:56:54.401Z,215.27
2018-05-29T23:59:28.393Z,222.57
